sensor_id;sensor_type;location;lat;lon;timestamp;P1;durP1;ratioP1;P2;durP2;ratioP2
32393;SDS011;18853;45.426;9.206;2023-01-25T00:02:00;24.27;;;16.02;;
32393;SDS011;18853;45.426;9.206;2023-01-25T00:04:26;22.42;;;16.05;;
32393;SDS011;18853;45.426;9.206;2023-01-25T00:06:52;26.52;;;16.42;;
32393;SDS011;18853;45.426;9.206;2023-01-25T00:09:19;23.90;;;16.23;;
32393;SDS011;18853;45.426;9.206;2023-01-25T00:11:46;25.65;;;16.50;;
32393;SDS011;18853;45.426;9.206;2023-01-25T00:14:12;24.77;;;17.42;;
32393;SDS011;18853;45.426;9.206;2023-01-25T00:16:38;22.52;;;16.63;;
32393;SDS011;18853;45.426;9.206;2023-01-25T00:19:04;26.52;;;17.23;;
32393;SDS011;18853;45.426;9.206;2023-01-25T00:21:31;25.67;;;17.10;;
32393;SDS011;18853;45.426;9.206;2023-01-25T00:23:58;24.77;;;17.55;;
32393;SDS011;18853;45.426;9.206;2023-01-25T00:26:24;23.52;;;16.98;;
32393;SDS011;18853;45.426;9.206;2023-01-25T00:28:55;26.73;;;16.88;;
32393;SDS011;18853;45.426;9.206;2023-01-25T00:37:02;24.60;;;17.33;;
32393;SDS011;18853;45.426;9.206;2023-01-25T00:39:44;25.52;;;17.35;;
32393;SDS011;18853;45.426;9.206;2023-01-25T00:42:10;25.05;;;16.40;;
32393;SDS011;18853;45.426;9.206;2023-01-25T00:44:37;26.15;;;17.83;;
32393;SDS011;18853;45.426;9.206;2023-01-25T00:47:03;24.35;;;17.17;;
32393;SDS011;18853;45.426;9.206;2023-01-25T00:49:30;24.10;;;16.42;;
32393;SDS011;18853;45.426;9.206;2023-01-25T00:51:56;25.08;;;16.67;;
32393;SDS011;18853;45.426;9.206;2023-01-25T00:54:22;24.80;;;16.92;;
32393;SDS011;18853;45.426;9.206;2023-01-25T00:56:48;25.15;;;16.83;;
32393;SDS011;18853;45.426;9.206;2023-01-25T00:59:17;25.85;;;17.30;;
32393;SDS011;18853;45.426;9.206;2023-01-25T01:01:42;26.05;;;16.70;;
32393;SDS011;18853;45.426;9.206;2023-01-25T01:04:08;25.55;;;17.52;;
32393;SDS011;18853;45.426;9.206;2023-01-25T01:06:35;25.27;;;16.70;;
32393;SDS011;18853;45.426;9.206;2023-01-25T01:09:02;26.65;;;17.67;;
32393;SDS011;18853;45.426;9.206;2023-01-25T01:11:29;24.48;;;16.73;;
32393;SDS011;18853;45.426;9.206;2023-01-25T01:13:56;26.50;;;17.38;;
32393;SDS011;18853;45.426;9.206;2023-01-25T01:16:22;24.90;;;17.65;;
32393;SDS011;18853;45.426;9.206;2023-01-25T01:18:48;26.40;;;17.88;;
32393;SDS011;18853;45.426;9.206;2023-01-25T01:21:14;24.33;;;17.15;;
32393;SDS011;18853;45.426;9.206;2023-01-25T01:23:41;25.35;;;17.08;;
32393;SDS011;18853;45.426;9.206;2023-01-25T01:26:07;27.23;;;17.65;;
32393;SDS011;18853;45.426;9.206;2023-01-25T01:28:35;28.25;;;18.55;;
32393;SDS011;18853;45.426;9.206;2023-01-25T01:31:05;25.08;;;17.73;;
32393;SDS011;18853;45.426;9.206;2023-01-25T01:33:32;27.60;;;18.30;;
32393;SDS011;18853;45.426;9.206;2023-01-25T01:35:58;28.63;;;19.10;;
32393;SDS011;18853;45.426;9.206;2023-01-25T01:38:30;26.15;;;18.63;;
32393;SDS011;18853;45.426;9.206;2023-01-25T01:40:57;25.52;;;17.58;;
32393;SDS011;18853;45.426;9.206;2023-01-25T01:43:22;26.38;;;18.20;;
32393;SDS011;18853;45.426;9.206;2023-01-25T01:45:53;25.85;;;18.50;;
32393;SDS011;18853;45.426;9.206;2023-01-25T01:50:50;26.45;;;18.38;;
32393;SDS011;18853;45.426;9.206;2023-01-25T01:53:20;24.77;;;18.27;;
32393;SDS011;18853;45.426;9.206;2023-01-25T01:55:49;25.88;;;18.15;;
32393;SDS011;18853;45.426;9.206;2023-01-25T01:58:16;27.80;;;18.48;;
32393;SDS011;18853;45.426;9.206;2023-01-25T02:00:42;26.42;;;17.90;;
32393;SDS011;18853;45.426;9.206;2023-01-25T02:03:08;28.25;;;18.35;;
32393;SDS011;18853;45.426;9.206;2023-01-25T02:05:44;28.38;;;19.95;;
32393;SDS011;18853;45.426;9.206;2023-01-25T02:08:21;30.90;;;20.88;;
32393;SDS011;18853;45.426;9.206;2023-01-25T02:10:49;28.38;;;20.40;;
32393;SDS011;18853;45.426;9.206;2023-01-25T02:13:15;27.75;;;20.08;;
32393;SDS011;18853;45.426;9.206;2023-01-25T02:15:46;30.45;;;20.67;;
32393;SDS011;18853;45.426;9.206;2023-01-25T02:18:15;29.10;;;21.40;;
32393;SDS011;18853;45.426;9.206;2023-01-25T02:20:52;29.75;;;21.70;;
32393;SDS011;18853;45.426;9.206;2023-01-25T02:26:02;30.17;;;20.73;;
32393;SDS011;18853;45.426;9.206;2023-01-25T02:28:31;31.63;;;20.17;;
32393;SDS011;18853;45.426;9.206;2023-01-25T02:31:14;26.42;;;19.50;;
32393;SDS011;18853;45.426;9.206;2023-01-25T02:33:40;27.92;;;19.75;;
32393;SDS011;18853;45.426;9.206;2023-01-25T02:38:32;29.45;;;20.20;;
32393;SDS011;18853;45.426;9.206;2023-01-25T02:41:02;27.33;;;19.10;;
32393;SDS011;18853;45.426;9.206;2023-01-25T02:43:32;26.83;;;18.75;;
32393;SDS011;18853;45.426;9.206;2023-01-25T02:46:02;29.70;;;19.27;;
32393;SDS011;18853;45.426;9.206;2023-01-25T02:48:35;24.90;;;18.73;;
32393;SDS011;18853;45.426;9.206;2023-01-25T02:51:01;27.77;;;19.25;;
32393;SDS011;18853;45.426;9.206;2023-01-25T02:53:30;29.33;;;20.50;;
32393;SDS011;18853;45.426;9.206;2023-01-25T02:55:55;26.45;;;19.40;;
32393;SDS011;18853;45.426;9.206;2023-01-25T02:58:21;25.92;;;18.65;;
32393;SDS011;18853;45.426;9.206;2023-01-25T03:00:47;26.15;;;19.00;;
32393;SDS011;18853;45.426;9.206;2023-01-25T03:03:12;21.85;;;17.60;;
32393;SDS011;18853;45.426;9.206;2023-01-25T03:05:38;26.02;;;19.08;;
32393;SDS011;18853;45.426;9.206;2023-01-25T03:08:04;24.45;;;19.02;;
32393;SDS011;18853;45.426;9.206;2023-01-25T03:10:29;30.65;;;20.45;;
32393;SDS011;18853;45.426;9.206;2023-01-25T03:12:55;25.92;;;19.55;;
32393;SDS011;18853;45.426;9.206;2023-01-25T03:15:21;25.40;;;19.75;;
32393;SDS011;18853;45.426;9.206;2023-01-25T03:17:46;26.98;;;19.83;;
32393;SDS011;18853;45.426;9.206;2023-01-25T03:20:12;25.23;;;19.25;;
32393;SDS011;18853;45.426;9.206;2023-01-25T03:22:38;26.05;;;19.25;;
32393;SDS011;18853;45.426;9.206;2023-01-25T03:25:03;27.48;;;20.58;;
32393;SDS011;18853;45.426;9.206;2023-01-25T03:27:30;26.58;;;19.58;;
32393;SDS011;18853;45.426;9.206;2023-01-25T03:29:56;25.55;;;19.40;;
32393;SDS011;18853;45.426;9.206;2023-01-25T03:32:21;25.77;;;18.80;;
32393;SDS011;18853;45.426;9.206;2023-01-25T03:34:47;27.05;;;19.45;;
32393;SDS011;18853;45.426;9.206;2023-01-25T03:37:13;25.40;;;18.23;;
32393;SDS011;18853;45.426;9.206;2023-01-25T03:39:39;26.58;;;19.33;;
32393;SDS011;18853;45.426;9.206;2023-01-25T03:42:05;27.30;;;19.05;;
32393;SDS011;18853;45.426;9.206;2023-01-25T03:44:30;24.23;;;18.60;;
32393;SDS011;18853;45.426;9.206;2023-01-25T03:46:56;24.38;;;18.73;;
32393;SDS011;18853;45.426;9.206;2023-01-25T03:49:22;23.58;;;19.13;;
32393;SDS011;18853;45.426;9.206;2023-01-25T03:51:48;26.48;;;18.25;;
32393;SDS011;18853;45.426;9.206;2023-01-25T03:54:14;24.55;;;17.95;;
32393;SDS011;18853;45.426;9.206;2023-01-25T03:56:39;24.80;;;18.67;;
32393;SDS011;18853;45.426;9.206;2023-01-25T03:59:05;23.25;;;18.33;;
32393;SDS011;18853;45.426;9.206;2023-01-25T04:01:31;23.48;;;18.48;;
32393;SDS011;18853;45.426;9.206;2023-01-25T04:03:57;26.13;;;18.65;;
32393;SDS011;18853;45.426;9.206;2023-01-25T04:06:22;22.52;;;17.90;;
32393;SDS011;18853;45.426;9.206;2023-01-25T04:08:48;23.15;;;18.23;;
32393;SDS011;18853;45.426;9.206;2023-01-25T04:11:14;22.58;;;18.60;;
32393;SDS011;18853;45.426;9.206;2023-01-25T04:13:40;24.80;;;18.98;;
32393;SDS011;18853;45.426;9.206;2023-01-25T04:16:06;22.63;;;17.75;;
32393;SDS011;18853;45.426;9.206;2023-01-25T04:18:33;25.02;;;19.20;;
32393;SDS011;18853;45.426;9.206;2023-01-25T04:20:59;24.60;;;18.35;;
32393;SDS011;18853;45.426;9.206;2023-01-25T04:23:25;25.88;;;18.20;;
32393;SDS011;18853;45.426;9.206;2023-01-25T04:25:55;23.83;;;17.58;;
32393;SDS011;18853;45.426;9.206;2023-01-25T04:28:22;22.52;;;18.23;;
32393;SDS011;18853;45.426;9.206;2023-01-25T04:30:48;23.55;;;17.67;;
32393;SDS011;18853;45.426;9.206;2023-01-25T04:33:14;21.38;;;17.52;;
32393;SDS011;18853;45.426;9.206;2023-01-25T04:35:41;22.85;;;17.60;;
32393;SDS011;18853;45.426;9.206;2023-01-25T04:38:08;23.52;;;18.33;;
32393;SDS011;18853;45.426;9.206;2023-01-25T04:40:34;24.38;;;17.63;;
32393;SDS011;18853;45.426;9.206;2023-01-25T04:43:00;22.13;;;16.95;;
32393;SDS011;18853;45.426;9.206;2023-01-25T04:45:26;23.58;;;16.30;;
32393;SDS011;18853;45.426;9.206;2023-01-25T04:47:56;21.02;;;16.25;;
32393;SDS011;18853;45.426;9.206;2023-01-25T04:50:23;22.40;;;16.45;;
32393;SDS011;18853;45.426;9.206;2023-01-25T04:52:49;20.98;;;16.15;;
32393;SDS011;18853;45.426;9.206;2023-01-25T04:55:14;23.95;;;16.10;;
32393;SDS011;18853;45.426;9.206;2023-01-25T04:57:40;20.98;;;15.98;;
32393;SDS011;18853;45.426;9.206;2023-01-25T05:00:06;20.48;;;14.82;;
32393;SDS011;18853;45.426;9.206;2023-01-25T05:02:33;21.33;;;16.63;;
32393;SDS011;18853;45.426;9.206;2023-01-25T05:04:58;21.55;;;16.63;;
32393;SDS011;18853;45.426;9.206;2023-01-25T05:07:24;21.88;;;16.40;;
32393;SDS011;18853;45.426;9.206;2023-01-25T05:09:49;22.73;;;16.35;;
32393;SDS011;18853;45.426;9.206;2023-01-25T05:12:15;21.38;;;16.02;;
32393;SDS011;18853;45.426;9.206;2023-01-25T05:14:41;21.52;;;16.65;;
32393;SDS011;18853;45.426;9.206;2023-01-25T05:17:07;21.40;;;16.10;;
32393;SDS011;18853;45.426;9.206;2023-01-25T05:19:33;22.02;;;16.95;;
32393;SDS011;18853;45.426;9.206;2023-01-25T05:22:00;22.60;;;17.02;;
32393;SDS011;18853;45.426;9.206;2023-01-25T05:24:30;19.98;;;16.42;;
32393;SDS011;18853;45.426;9.206;2023-01-25T05:26:57;21.95;;;16.85;;
32393;SDS011;18853;45.426;9.206;2023-01-25T05:32:16;23.05;;;16.95;;
32393;SDS011;18853;45.426;9.206;2023-01-25T05:34:46;23.27;;;18.00;;
32393;SDS011;18853;45.426;9.206;2023-01-25T05:37:14;22.98;;;17.80;;
32393;SDS011;18853;45.426;9.206;2023-01-25T05:39:41;23.75;;;18.15;;
32393;SDS011;18853;45.426;9.206;2023-01-25T05:42:10;24.63;;;17.30;;
32393;SDS011;18853;45.426;9.206;2023-01-25T05:44:38;25.77;;;19.38;;
32393;SDS011;18853;45.426;9.206;2023-01-25T05:47:04;27.50;;;19.50;;
32393;SDS011;18853;45.426;9.206;2023-01-25T05:49:29;23.60;;;18.17;;
32393;SDS011;18853;45.426;9.206;2023-01-25T05:51:55;27.10;;;20.42;;
32393;SDS011;18853;45.426;9.206;2023-01-25T05:54:21;29.27;;;20.27;;
32393;SDS011;18853;45.426;9.206;2023-01-25T05:56:47;27.38;;;20.70;;
32393;SDS011;18853;45.426;9.206;2023-01-25T05:59:14;30.15;;;22.23;;
32393;SDS011;18853;45.426;9.206;2023-01-25T06:01:41;29.95;;;21.85;;
32393;SDS011;18853;45.426;9.206;2023-01-25T06:04:07;27.95;;;21.23;;
32393;SDS011;18853;45.426;9.206;2023-01-25T06:06:33;30.20;;;22.48;;
32393;SDS011;18853;45.426;9.206;2023-01-25T06:08:59;30.67;;;23.02;;
32393;SDS011;18853;45.426;9.206;2023-01-25T06:11:26;29.58;;;22.83;;
32393;SDS011;18853;45.426;9.206;2023-01-25T06:13:51;31.70;;;23.17;;
32393;SDS011;18853;45.426;9.206;2023-01-25T06:16:17;32.38;;;24.52;;
32393;SDS011;18853;45.426;9.206;2023-01-25T06:18:43;33.83;;;25.20;;
32393;SDS011;18853;45.426;9.206;2023-01-25T06:21:09;36.33;;;26.58;;
32393;SDS011;18853;45.426;9.206;2023-01-25T06:23:35;38.28;;;26.85;;
32393;SDS011;18853;45.426;9.206;2023-01-25T06:26:04;38.13;;;26.88;;
32393;SDS011;18853;45.426;9.206;2023-01-25T06:28:32;38.55;;;26.88;;
32393;SDS011;18853;45.426;9.206;2023-01-25T06:31:08;35.20;;;25.48;;
32393;SDS011;18853;45.426;9.206;2023-01-25T06:33:39;40.33;;;27.27;;
32393;SDS011;18853;45.426;9.206;2023-01-25T06:36:07;39.92;;;27.90;;
32393;SDS011;18853;45.426;9.206;2023-01-25T06:38:38;35.83;;;27.23;;
32393;SDS011;18853;45.426;9.206;2023-01-25T06:41:04;37.42;;;27.77;;
32393;SDS011;18853;45.426;9.206;2023-01-25T06:43:31;37.15;;;26.58;;
32393;SDS011;18853;45.426;9.206;2023-01-25T06:46:02;35.55;;;26.35;;
32393;SDS011;18853;45.426;9.206;2023-01-25T06:48:29;39.80;;;27.65;;
32393;SDS011;18853;45.426;9.206;2023-01-25T06:51:00;36.60;;;27.10;;
32393;SDS011;18853;45.426;9.206;2023-01-25T06:53:27;36.50;;;27.23;;
32393;SDS011;18853;45.426;9.206;2023-01-25T06:56:01;37.58;;;27.35;;
32393;SDS011;18853;45.426;9.206;2023-01-25T06:58:27;39.58;;;27.88;;
32393;SDS011;18853;45.426;9.206;2023-01-25T07:00:57;37.85;;;28.17;;
32393;SDS011;18853;45.426;9.206;2023-01-25T07:03:55;40.25;;;28.08;;
32393;SDS011;18853;45.426;9.206;2023-01-25T07:06:22;40.17;;;28.30;;
32393;SDS011;18853;45.426;9.206;2023-01-25T07:08:49;42.78;;;28.88;;
32393;SDS011;18853;45.426;9.206;2023-01-25T07:11:15;42.88;;;28.48;;
32393;SDS011;18853;45.426;9.206;2023-01-25T07:13:43;44.22;;;29.48;;
32393;SDS011;18853;45.426;9.206;2023-01-25T07:16:10;41.78;;;28.23;;
32393;SDS011;18853;45.426;9.206;2023-01-25T07:18:38;40.67;;;28.27;;
32393;SDS011;18853;45.426;9.206;2023-01-25T07:21:09;43.72;;;28.85;;
32393;SDS011;18853;45.426;9.206;2023-01-25T07:23:39;38.90;;;28.23;;
32393;SDS011;18853;45.426;9.206;2023-01-25T07:26:05;42.13;;;28.45;;
32393;SDS011;18853;45.426;9.206;2023-01-25T07:28:40;43.65;;;28.98;;
32393;SDS011;18853;45.426;9.206;2023-01-25T07:31:05;42.92;;;28.83;;
32393;SDS011;18853;45.426;9.206;2023-01-25T07:33:32;43.03;;;28.45;;
32393;SDS011;18853;45.426;9.206;2023-01-25T07:35:59;43.67;;;29.42;;
32393;SDS011;18853;45.426;9.206;2023-01-25T07:38:29;42.95;;;27.92;;
32393;SDS011;18853;45.426;9.206;2023-01-25T07:40:55;47.35;;;29.15;;
32393;SDS011;18853;45.426;9.206;2023-01-25T07:43:21;47.00;;;29.95;;
32393;SDS011;18853;45.426;9.206;2023-01-25T07:45:47;46.58;;;28.90;;
32393;SDS011;18853;45.426;9.206;2023-01-25T07:48:13;44.05;;;28.98;;
32393;SDS011;18853;45.426;9.206;2023-01-25T07:50:41;46.13;;;28.67;;
32393;SDS011;18853;45.426;9.206;2023-01-25T07:53:11;45.00;;;28.55;;
32393;SDS011;18853;45.426;9.206;2023-01-25T07:55:37;43.88;;;27.70;;
32393;SDS011;18853;45.426;9.206;2023-01-25T07:58:03;42.42;;;28.05;;
32393;SDS011;18853;45.426;9.206;2023-01-25T08:00:29;44.58;;;28.25;;
32393;SDS011;18853;45.426;9.206;2023-01-25T08:02:55;46.30;;;28.63;;
32393;SDS011;18853;45.426;9.206;2023-01-25T08:05:20;43.05;;;27.73;;
32393;SDS011;18853;45.426;9.206;2023-01-25T08:07:46;42.38;;;27.90;;
32393;SDS011;18853;45.426;9.206;2023-01-25T08:10:12;45.88;;;28.60;;
32393;SDS011;18853;45.426;9.206;2023-01-25T08:12:39;43.15;;;26.90;;
32393;SDS011;18853;45.426;9.206;2023-01-25T08:15:08;42.35;;;27.90;;
32393;SDS011;18853;45.426;9.206;2023-01-25T08:17:34;44.08;;;27.98;;
32393;SDS011;18853;45.426;9.206;2023-01-25T08:20:00;44.40;;;28.58;;
32393;SDS011;18853;45.426;9.206;2023-01-25T08:22:26;43.45;;;27.60;;
32393;SDS011;18853;45.426;9.206;2023-01-25T08:24:52;41.28;;;26.73;;
32393;SDS011;18853;45.426;9.206;2023-01-25T08:27:18;48.15;;;28.60;;
32393;SDS011;18853;45.426;9.206;2023-01-25T08:29:45;43.40;;;28.67;;
32393;SDS011;18853;45.426;9.206;2023-01-25T08:32:11;46.70;;;28.15;;
32393;SDS011;18853;45.426;9.206;2023-01-25T08:34:36;44.70;;;28.58;;
32393;SDS011;18853;45.426;9.206;2023-01-25T08:37:03;47.90;;;29.02;;
32393;SDS011;18853;45.426;9.206;2023-01-25T08:39:29;47.28;;;28.58;;
32393;SDS011;18853;45.426;9.206;2023-01-25T08:41:55;41.38;;;27.45;;
32393;SDS011;18853;45.426;9.206;2023-01-25T08:44:21;47.00;;;28.75;;
32393;SDS011;18853;45.426;9.206;2023-01-25T08:46:48;46.97;;;29.42;;
32393;SDS011;18853;45.426;9.206;2023-01-25T08:49:14;47.50;;;29.38;;
32393;SDS011;18853;45.426;9.206;2023-01-25T08:51:39;47.63;;;28.88;;
32393;SDS011;18853;45.426;9.206;2023-01-25T08:54:06;45.08;;;28.35;;
32393;SDS011;18853;45.426;9.206;2023-01-25T08:56:37;44.75;;;27.67;;
32393;SDS011;18853;45.426;9.206;2023-01-25T08:59:04;44.17;;;28.55;;
32393;SDS011;18853;45.426;9.206;2023-01-25T09:01:30;46.13;;;28.38;;
32393;SDS011;18853;45.426;9.206;2023-01-25T09:03:56;46.88;;;28.50;;
32393;SDS011;18853;45.426;9.206;2023-01-25T09:06:21;46.67;;;28.80;;
32393;SDS011;18853;45.426;9.206;2023-01-25T09:08:47;45.88;;;29.50;;
32393;SDS011;18853;45.426;9.206;2023-01-25T09:11:15;44.92;;;27.65;;
32393;SDS011;18853;45.426;9.206;2023-01-25T09:13:42;43.33;;;27.02;;
32393;SDS011;18853;45.426;9.206;2023-01-25T09:16:13;42.83;;;27.55;;
32393;SDS011;18853;45.426;9.206;2023-01-25T09:18:40;46.03;;;28.60;;
32393;SDS011;18853;45.426;9.206;2023-01-25T09:21:08;45.05;;;28.52;;
32393;SDS011;18853;45.426;9.206;2023-01-25T09:23:35;42.08;;;27.33;;
32393;SDS011;18853;45.426;9.206;2023-01-25T09:26:01;48.47;;;27.95;;
32393;SDS011;18853;45.426;9.206;2023-01-25T09:28:28;41.80;;;26.98;;
32393;SDS011;18853;45.426;9.206;2023-01-25T09:31:02;42.83;;;27.73;;
32393;SDS011;18853;45.426;9.206;2023-01-25T09:33:33;42.38;;;27.48;;
32393;SDS011;18853;45.426;9.206;2023-01-25T09:36:01;45.53;;;27.17;;
32393;SDS011;18853;45.426;9.206;2023-01-25T09:38:26;43.20;;;27.63;;
32393;SDS011;18853;45.426;9.206;2023-01-25T09:46:42;44.10;;;27.73;;
32393;SDS011;18853;45.426;9.206;2023-01-25T09:54:38;40.17;;;27.10;;
32393;SDS011;18853;45.426;9.206;2023-01-25T09:57:09;44.38;;;27.67;;
32393;SDS011;18853;45.426;9.206;2023-01-25T09:59:41;43.83;;;28.05;;
32393;SDS011;18853;45.426;9.206;2023-01-25T10:02:32;43.53;;;27.13;;
32393;SDS011;18853;45.426;9.206;2023-01-25T10:05:21;43.17;;;26.25;;
32393;SDS011;18853;45.426;9.206;2023-01-25T10:13:13;43.60;;;27.38;;
32393;SDS011;18853;45.426;9.206;2023-01-25T10:16:18;44.10;;;26.25;;
32393;SDS011;18853;45.426;9.206;2023-01-25T10:21:46;38.05;;;24.38;;
32393;SDS011;18853;45.426;9.206;2023-01-25T10:33:09;53.08;;;33.42;;
32393;SDS011;18853;45.426;9.206;2023-01-25T10:35:37;50.85;;;32.70;;
32393;SDS011;18853;45.426;9.206;2023-01-25T10:41:09;54.47;;;33.70;;
32393;SDS011;18853;45.426;9.206;2023-01-25T10:43:45;52.15;;;31.88;;
32393;SDS011;18853;45.426;9.206;2023-01-25T10:46:29;52.17;;;33.60;;
32393;SDS011;18853;45.426;9.206;2023-01-25T10:48:55;57.22;;;34.97;;
32393;SDS011;18853;45.426;9.206;2023-01-25T10:51:31;57.03;;;35.25;;
32393;SDS011;18853;45.426;9.206;2023-01-25T10:54:03;53.78;;;33.92;;
32393;SDS011;18853;45.426;9.206;2023-01-25T10:56:33;55.60;;;33.85;;
32393;SDS011;18853;45.426;9.206;2023-01-25T10:59:07;51.97;;;32.40;;
32393;SDS011;18853;45.426;9.206;2023-01-25T11:01:49;57.97;;;34.83;;
32393;SDS011;18853;45.426;9.206;2023-01-25T11:04:23;50.97;;;30.95;;
32393;SDS011;18853;45.426;9.206;2023-01-25T11:06:59;50.58;;;32.22;;
32393;SDS011;18853;45.426;9.206;2023-01-25T11:09:39;52.67;;;33.47;;
32393;SDS011;18853;45.426;9.206;2023-01-25T11:12:17;52.13;;;32.30;;
32393;SDS011;18853;45.426;9.206;2023-01-25T11:14:45;52.28;;;33.22;;
32393;SDS011;18853;45.426;9.206;2023-01-25T11:17:27;49.70;;;31.17;;
32393;SDS011;18853;45.426;9.206;2023-01-25T11:22:47;44.13;;;28.00;;
32393;SDS011;18853;45.426;9.206;2023-01-25T11:25:23;39.13;;;25.07;;
32393;SDS011;18853;45.426;9.206;2023-01-25T11:28:09;34.55;;;22.30;;
32393;SDS011;18853;45.426;9.206;2023-01-25T11:30:35;35.35;;;22.50;;
32393;SDS011;18853;45.426;9.206;2023-01-25T11:33:01;38.53;;;23.67;;
32393;SDS011;18853;45.426;9.206;2023-01-25T11:35:30;36.67;;;22.75;;
32393;SDS011;18853;45.426;9.206;2023-01-25T11:38:11;39.83;;;23.58;;
32393;SDS011;18853;45.426;9.206;2023-01-25T11:40:40;37.65;;;23.80;;
32393;SDS011;18853;45.426;9.206;2023-01-25T11:46:20;27.20;;;18.60;;
32393;SDS011;18853;45.426;9.206;2023-01-25T11:51:40;35.38;;;20.83;;
32393;SDS011;18853;45.426;9.206;2023-01-25T11:56:59;29.55;;;19.48;;
32393;SDS011;18853;45.426;9.206;2023-01-25T12:21:43;26.77;;;16.38;;
32393;SDS011;18853;45.426;9.206;2023-01-25T12:33:11;26.27;;;16.35;;
32393;SDS011;18853;45.426;9.206;2023-01-25T12:41:24;26.65;;;15.77;;
32393;SDS011;18853;45.426;9.206;2023-01-25T12:43:59;26.95;;;15.85;;
32393;SDS011;18853;45.426;9.206;2023-01-25T12:49:35;27.80;;;16.65;;
32393;SDS011;18853;45.426;9.206;2023-01-25T12:52:04;23.70;;;15.70;;
32393;SDS011;18853;45.426;9.206;2023-01-25T12:54:38;28.42;;;16.45;;
32393;SDS011;18853;45.426;9.206;2023-01-25T13:02:40;24.75;;;16.38;;
32393;SDS011;18853;45.426;9.206;2023-01-25T13:05:09;27.63;;;16.52;;
32393;SDS011;18853;45.426;9.206;2023-01-25T13:10:37;24.00;;;14.05;;
32393;SDS011;18853;45.426;9.206;2023-01-25T13:15:46;24.00;;;14.43;;
32393;SDS011;18853;45.426;9.206;2023-01-25T13:20:53;25.10;;;15.32;;
32393;SDS011;18853;45.426;9.206;2023-01-25T13:23:39;25.73;;;16.50;;
32393;SDS011;18853;45.426;9.206;2023-01-25T13:28:53;28.48;;;16.70;;
32393;SDS011;18853;45.426;9.206;2023-01-25T13:31:53;24.00;;;15.25;;
32393;SDS011;18853;45.426;9.206;2023-01-25T13:37:01;29.55;;;16.17;;
32393;SDS011;18853;45.426;9.206;2023-01-25T13:42:14;29.48;;;18.13;;
32393;SDS011;18853;45.426;9.206;2023-01-25T13:44:47;33.67;;;17.92;;
32393;SDS011;18853;45.426;9.206;2023-01-25T13:47:22;27.60;;;17.52;;
32393;SDS011;18853;45.426;9.206;2023-01-25T13:52:22;29.80;;;18.65;;
32393;SDS011;18853;45.426;9.206;2023-01-25T13:54:52;30.20;;;18.58;;
32393;SDS011;18853;45.426;9.206;2023-01-25T13:57:20;30.10;;;19.02;;
32393;SDS011;18853;45.426;9.206;2023-01-25T14:00:24;32.58;;;19.42;;
32393;SDS011;18853;45.426;9.206;2023-01-25T14:02:43;30.02;;;19.45;;
32393;SDS011;18853;45.426;9.206;2023-01-25T14:05:17;29.90;;;18.98;;
32393;SDS011;18853;45.426;9.206;2023-01-25T14:07:46;33.47;;;20.35;;
32393;SDS011;18853;45.426;9.206;2023-01-25T14:10:19;31.38;;;20.50;;
32393;SDS011;18853;45.426;9.206;2023-01-25T14:12:48;32.40;;;19.83;;
32393;SDS011;18853;45.426;9.206;2023-01-25T14:20:33;27.23;;;16.90;;
32393;SDS011;18853;45.426;9.206;2023-01-25T14:22:59;30.92;;;19.55;;
32393;SDS011;18853;45.426;9.206;2023-01-25T14:25:24;29.80;;;19.70;;
32393;SDS011;18853;45.426;9.206;2023-01-25T14:27:59;29.58;;;18.27;;
32393;SDS011;18853;45.426;9.206;2023-01-25T14:32:55;28.48;;;18.92;;
32393;SDS011;18853;45.426;9.206;2023-01-25T14:37:54;32.58;;;19.92;;
32393;SDS011;18853;45.426;9.206;2023-01-25T14:40:20;32.55;;;18.73;;
32393;SDS011;18853;45.426;9.206;2023-01-25T14:42:48;28.98;;;18.38;;
32393;SDS011;18853;45.426;9.206;2023-01-25T14:45:15;27.42;;;18.13;;
32393;SDS011;18853;45.426;9.206;2023-01-25T14:47:41;26.17;;;18.58;;
32393;SDS011;18853;45.426;9.206;2023-01-25T14:53:21;26.67;;;19.15;;
32393;SDS011;18853;45.426;9.206;2023-01-25T14:55:48;30.45;;;19.55;;
32393;SDS011;18853;45.426;9.206;2023-01-25T14:58:16;28.35;;;19.40;;
32393;SDS011;18853;45.426;9.206;2023-01-25T15:03:26;29.08;;;19.25;;
32393;SDS011;18853;45.426;9.206;2023-01-25T15:05:54;27.48;;;19.17;;
32393;SDS011;18853;45.426;9.206;2023-01-25T15:08:26;27.02;;;18.05;;
32393;SDS011;18853;45.426;9.206;2023-01-25T15:10:53;28.27;;;18.83;;
32393;SDS011;18853;45.426;9.206;2023-01-25T15:13:22;28.77;;;18.83;;
32393;SDS011;18853;45.426;9.206;2023-01-25T15:15:56;30.40;;;19.27;;
32393;SDS011;18853;45.426;9.206;2023-01-25T15:23:51;27.60;;;18.48;;
32393;SDS011;18853;45.426;9.206;2023-01-25T15:26:20;29.27;;;18.77;;
32393;SDS011;18853;45.426;9.206;2023-01-25T15:28:48;23.85;;;17.25;;
32393;SDS011;18853;45.426;9.206;2023-01-25T15:31:18;29.45;;;19.10;;
32393;SDS011;18853;45.426;9.206;2023-01-25T15:33:47;29.17;;;18.65;;
32393;SDS011;18853;45.426;9.206;2023-01-25T15:36:13;27.10;;;17.58;;
32393;SDS011;18853;45.426;9.206;2023-01-25T15:38:40;25.20;;;17.50;;
32393;SDS011;18853;45.426;9.206;2023-01-25T15:41:06;27.70;;;18.65;;
32393;SDS011;18853;45.426;9.206;2023-01-25T15:43:32;27.25;;;18.90;;
32393;SDS011;18853;45.426;9.206;2023-01-25T15:45:57;26.05;;;17.35;;
32393;SDS011;18853;45.426;9.206;2023-01-25T15:48:41;25.85;;;16.88;;
32393;SDS011;18853;45.426;9.206;2023-01-25T15:51:08;28.55;;;16.88;;
32393;SDS011;18853;45.426;9.206;2023-01-25T15:53:34;26.80;;;17.50;;
32393;SDS011;18853;45.426;9.206;2023-01-25T15:56:04;28.10;;;17.60;;
32393;SDS011;18853;45.426;9.206;2023-01-25T15:58:40;26.73;;;16.70;;
32393;SDS011;18853;45.426;9.206;2023-01-25T16:01:08;27.33;;;17.38;;
32393;SDS011;18853;45.426;9.206;2023-01-25T16:03:34;24.40;;;16.27;;
32393;SDS011;18853;45.426;9.206;2023-01-25T16:06:01;23.98;;;16.98;;
32393;SDS011;18853;45.426;9.206;2023-01-25T16:08:29;24.75;;;15.68;;
32393;SDS011;18853;45.426;9.206;2023-01-25T16:10:55;23.42;;;15.82;;
32393;SDS011;18853;45.426;9.206;2023-01-25T16:13:21;23.05;;;15.43;;
32393;SDS011;18853;45.426;9.206;2023-01-25T16:15:49;22.05;;;15.20;;
32393;SDS011;18853;45.426;9.206;2023-01-25T16:18:17;22.90;;;15.30;;
32393;SDS011;18853;45.426;9.206;2023-01-25T16:20:42;21.25;;;15.05;;
32393;SDS011;18853;45.426;9.206;2023-01-25T16:23:09;23.42;;;15.18;;
32393;SDS011;18853;45.426;9.206;2023-01-25T16:25:36;22.33;;;15.90;;
32393;SDS011;18853;45.426;9.206;2023-01-25T16:28:03;23.95;;;15.48;;
32393;SDS011;18853;45.426;9.206;2023-01-25T16:30:29;22.35;;;14.40;;
32393;SDS011;18853;45.426;9.206;2023-01-25T16:32:58;21.40;;;14.32;;
32393;SDS011;18853;45.426;9.206;2023-01-25T16:35:24;24.35;;;15.38;;
32393;SDS011;18853;45.426;9.206;2023-01-25T16:37:49;23.48;;;14.98;;
32393;SDS011;18853;45.426;9.206;2023-01-25T16:42:47;22.13;;;14.77;;
32393;SDS011;18853;45.426;9.206;2023-01-25T16:45:12;22.95;;;14.75;;
32393;SDS011;18853;45.426;9.206;2023-01-25T16:47:40;24.98;;;14.98;;
32393;SDS011;18853;45.426;9.206;2023-01-25T16:50:13;22.50;;;15.02;;
32393;SDS011;18853;45.426;9.206;2023-01-25T16:52:40;22.48;;;14.25;;
32393;SDS011;18853;45.426;9.206;2023-01-25T16:55:08;21.35;;;14.13;;
32393;SDS011;18853;45.426;9.206;2023-01-25T16:57:35;21.67;;;14.63;;